KLAW

Lawton-Fort Sill Regional Airport

Airport
ICAO code
KLAW
Summary
ICAO Region
NAM
ICAO Territory
Location

Lawton, Oklahoma,

Coordinates
34° 34' 23" N , 98° 24' 52" W
KCC
Metar
Observation
KLAW 070753Z AUTO 00000KT 10SM SCT100 BKN120 14/08 A3021 RMK AO2 SLP222 T01440083
Station
Lawton, Lawton Municipal Airport
Date/Time
2022-10-07 07:53:00
Wind direction
Wind speed
00 kts
Lowest cloud amount
scattered clouds
Temperature
14.4°C
Dew point
8.3°C
Humidity
66%
Weather condition
n/a

Description

Lawton–Fort Sill Regional Airport is a public use airport located 4 km south of the central business district of Lawton, a city in Comanche County, Oklahoma.

Climatology

Dry “subtropical” climate (Köppen climate classification Cfa) - characterized by hot summers and cool, occasionally cold winters. Winter rainfall (and sometimes snowfall) is associated with large storms that the westerlies steer from west to east. Most summer rainfall occurs during thunderstorms.

Runways

Designator Length Width Surface Rops
17/35 2621 46 CON Yes/Yes

Airport map

Aerial View

SKYbrary Partners:

Safety knowledge contributed by: